Time;durP1;ratioP1;P1;durP2;ratioP2;P2;SDS_P1;SDS_P2;PMS_P1;PMS_P2;Temp;Humidity;BMP_temperature;BMP_pressure;BME280_temperature;BME280_humidity;BME280_pressure;Samples;Min_cycle;Max_cycle;Signal;HPM_P1;HPM_P2
2022/03/19 00:00:33;;;;;;;10.98;6.95;;;5.60;99.90;;;;;;7294123;32;20238;-61
2022/03/19 00:04:35;;;;;;;10.70;6.85;;;5.50;99.90;;;;;;7297317;32;20113;-60
2022/03/19 00:08:37;;;;;;;13.50;6.87;;;5.30;99.90;;;;;;7295400;32;20529;-59
2022/03/19 00:12:39;;;;;;;14.82;6.95;;;5.20;99.90;;;;;;7296330;32;20660;-59
2022/03/19 00:16:42;;;;;;;12.50;6.65;;;5.10;99.90;;;;;;7295360;32;20564;-59
2022/03/19 00:20:43;;;;;;;10.40;6.57;;;5.00;99.90;;;;;;7294549;32;20116;-60
2022/03/19 00:24:45;;;;;;;12.60;6.85;;;4.80;99.90;;;;;;7295103;32;20124;-60
2022/03/19 00:28:47;;;;;;;10.77;6.57;;;4.80;99.90;;;;;;7291782;32;20130;-61
2022/03/19 00:32:49;;;;;;;10.30;6.60;;;4.60;99.90;;;;;;7293719;32;20108;-59
2022/03/19 00:36:50;;;;;;;12.82;7.62;;;4.50;99.90;;;;;;7289357;32;20680;-59
2022/03/19 00:40:52;;;;;;;13.82;7.53;;;4.40;99.90;;;;;;7296322;32;20670;-58
2022/03/19 00:44:54;;;;;;;13.02;6.75;;;4.30;99.90;;;;;;7292102;32;20124;-60
2022/03/19 00:48:56;;;;;;;12.07;7.03;;;4.20;99.90;;;;;;7288441;32;20164;-59
2022/03/19 00:52:58;;;;;;;11.60;7.22;;;4.00;99.90;;;;;;7292932;32;20214;-59
2022/03/19 00:56:59;;;;;;;14.32;6.90;;;3.80;99.90;;;;;;7293787;32;20108;-60
2022/03/19 01:01:01;;;;;;;11.48;7.47;;;3.70;99.90;;;;;;7293505;32;20699;-59
2022/03/19 01:05:04;;;;;;;11.73;7.47;;;3.60;99.90;;;;;;7287486;32;20593;-59
2022/03/19 01:09:06;;;;;;;13.20;7.37;;;3.50;99.90;;;;;;7293370;32;20222;-59
2022/03/19 01:13:08;;;;;;;14.40;8.05;;;3.40;99.90;;;;;;7294512;32;20222;-60
2022/03/19 01:17:09;;;;;;;16.08;9.18;;;3.30;99.90;;;;;;7296614;32;20299;-59
2022/03/19 01:21:11;;;;;;;24.40;10.85;;;3.20;99.90;;;;;;7291553;32;20138;-60
2022/03/19 01:25:14;;;;;;;14.50;9.07;;;3.20;99.90;;;;;;7293601;32;20173;-60
2022/03/19 01:29:16;;;;;;;14.10;9.23;;;3.00;99.90;;;;;;7295646;32;20563;-60
2022/03/19 01:33:17;;;;;;;15.48;8.82;;;3.00;99.90;;;;;;7294570;32;20111;-59
2022/03/19 01:37:20;;;;;;;13.00;7.65;;;2.90;99.90;;;;;;7289188;32;20536;-59
2022/03/19 01:41:22;;;;;;;14.32;8.23;;;2.80;99.90;;;;;;7295435;32;20143;-60
2022/03/19 01:45:24;;;;;;;12.88;7.87;;;2.80;99.90;;;;;;7289072;32;20456;-60
2022/03/19 01:49:27;;;;;;;13.35;7.03;;;2.80;99.90;;;;;;7293372;32;20181;-60
2022/03/19 01:53:29;;;;;;;11.50;7.32;;;2.70;99.90;;;;;;7290395;32;20190;-60
2022/03/19 01:57:34;;;;;;;15.68;7.30;;;2.70;99.90;;;;;;7293309;32;20108;-59
2022/03/19 02:01:36;;;;;;;13.40;8.05;;;2.80;99.90;;;;;;7293511;32;20832;-60
2022/03/19 02:05:39;;;;;;;10.98;7.60;;;2.90;99.90;;;;;;7290526;32;20128;-59
2022/03/19 02:09:40;;;;;;;12.63;7.22;;;2.90;99.90;;;;;;7292870;32;20810;-59
2022/03/19 02:13:42;;;;;;;13.40;7.28;;;2.90;99.90;;;;;;7291640;32;20237;-60
2022/03/19 02:17:44;;;;;;;13.62;7.85;;;3.00;99.90;;;;;;7286778;32;20131;-59
2022/03/19 02:21:48;;;;;;;12.80;6.75;;;3.00;99.90;;;;;;7283757;32;20211;-59
2022/03/19 02:25:49;;;;;;;13.95;7.00;;;3.00;99.90;;;;;;7290489;32;20112;-59
2022/03/19 02:29:52;;;;;;;12.93;6.68;;;3.20;99.90;;;;;;7292336;32;20130;-59
2022/03/19 02:33:53;;;;;;;12.52;7.20;;;3.20;99.90;;;;;;7292268;32;20230;-59
2022/03/19 02:37:55;;;;;;;12.25;7.35;;;3.10;99.90;;;;;;7288176;32;20839;-61
2022/03/19 02:41:59;;;;;;;14.13;7.40;;;3.20;99.90;;;;;;7293441;32;20115;-59
2022/03/19 02:46:01;;;;;;;12.77;7.12;;;3.20;99.90;;;;;;7291418;32;20119;-60
2022/03/19 02:50:03;;;;;;;16.42;7.75;;;3.10;99.90;;;;;;7291191;32;20230;-59
2022/03/19 02:54:08;;;;;;;16.35;7.18;;;3.10;99.90;;;;;;7291638;32;20112;-59
2022/03/19 02:58:10;;;;;;;14.45;7.37;;;3.10;99.90;;;;;;7292042;32;20138;-60
2022/03/19 03:02:12;;;;;;;14.07;7.55;;;3.20;99.90;;;;;;7294403;32;20101;-60
2022/03/19 03:06:14;;;;;;;11.07;6.82;;;3.20;99.90;;;;;;7286625;32;20616;-58
2022/03/19 03:10:18;;;;;;;12.05;7.05;;;3.20;99.90;;;;;;7289284;32;20194;-59
2022/03/19 03:14:23;;;;;;;13.80;7.90;;;3.20;99.90;;;;;;7290272;32;20306;-59
2022/03/19 03:18:24;;;;;;;14.30;7.93;;;3.20;99.90;;;;;;7290764;32;20262;-59
2022/03/19 03:22:26;;;;;;;17.12;10.27;;;3.40;99.90;;;;;;7292891;32;20512;-59
2022/03/19 03:26:29;;;;;;;13.80;7.53;;;3.90;99.90;;;;;;7285731;32;20329;-59
2022/03/19 03:30:31;;;;;;;17.60;8.73;;;4.20;99.90;;;;;;7287003;32;20515;-60
2022/03/19 03:34:33;;;;;;;11.90;7.93;;;4.30;99.90;;;;;;7274236;32;20527;-58
2022/03/19 03:38:34;;;;;;;12.82;8.75;;;4.30;99.90;;;;;;7275802;32;20572;-60
2022/03/19 03:42:40;;;;;;;13.98;7.50;;;4.50;99.90;;;;;;7287882;32;20467;-60
2022/03/19 03:46:42;;;;;;;13.75;8.50;;;4.50;99.90;;;;;;7256820;32;20223;-60
2022/03/19 03:50:44;;;;;;;14.63;7.90;;;4.40;99.90;;;;;;7287436;32;20108;-60
2022/03/19 03:54:46;;;;;;;17.12;7.95;;;4.30;99.90;;;;;;7270164;32;20718;-59
2022/03/19 03:58:48;;;;;;;18.25;8.75;;;4.20;99.90;;;;;;7257851;32;20285;-59
2022/03/19 04:02:50;;;;;;;14.85;8.00;;;4.20;99.90;;;;;;7270115;32;20115;-60
2022/03/19 04:06:52;;;;;;;16.27;8.50;;;4.30;99.90;;;;;;7290360;32;20150;-59
2022/03/19 04:10:53;;;;;;;19.15;8.95;;;4.40;99.90;;;;;;7292140;32;20108;-60
2022/03/19 04:14:55;;;;;;;15.15;8.48;;;4.50;99.90;;;;;;7289809;32;20218;-59
2022/03/19 04:18:56;;;;;;;15.65;8.82;;;4.40;99.90;;;;;;7283851;32;20222;-59
2022/03/19 04:22:58;;;;;;;17.62;9.00;;;4.40;99.90;;;;;;7287316;32;20132;-60
2022/03/19 04:27:00;;;;;;;16.55;8.75;;;4.40;99.90;;;;;;7289942;32;20401;-59
2022/03/19 04:31:01;;;;;;;17.33;9.18;;;4.30;99.90;;;;;;7289974;32;20108;-59
2022/03/19 04:36:29;;;;;;;14.07;9.02;;;4.40;99.90;;;;;;7290042;32;20289;-60
2022/03/19 04:39:26;;;;;;;14.15;8.50;;;4.40;99.90;;;;;;7285540;32;20128;-59
2022/03/19 04:43:28;;;;;;;15.32;8.95;;;4.40;99.90;;;;;;7292151;32;20170;-59
2022/03/19 04:47:30;;;;;;;14.57;9.05;;;4.30;99.90;;;;;;7296723;32;20119;-60
2022/03/19 04:51:37;;;;;;;16.52;9.77;;;4.30;99.90;;;;;;7295698;32;20460;-60
2022/03/19 04:55:40;;;;;;;17.83;9.60;;;4.30;99.90;;;;;;7292452;32;20253;-60
2022/03/19 04:59:41;;;;;;;17.30;9.95;;;4.30;99.90;;;;;;7295195;32;20112;-59
2022/03/19 05:03:43;;;;;;;15.00;9.48;;;4.30;99.90;;;;;;7293475;32;20214;-60
2022/03/19 05:07:45;;;;;;;16.08;8.73;;;4.20;99.90;;;;;;7293242;32;20154;-59
2022/03/19 05:11:50;;;;;;;15.85;9.50;;;4.10;99.90;;;;;;7292238;32;20394;-60
2022/03/19 05:15:52;;;;;;;18.02;10.30;;;4.00;99.90;;;;;;7286732;32;20191;-60
2022/03/19 05:19:54;;;;;;;18.85;9.35;;;4.10;99.90;;;;;;7286316;32;20267;-59
2022/03/19 05:24:03;;;;;;;20.48;10.02;;;4.10;99.90;;;;;;7293184;32;20142;-59
2022/03/19 05:28:05;;;;;;;15.32;9.18;;;3.90;99.90;;;;;;7289510;32;20551;-59
2022/03/19 05:32:27;;;;;;;25.27;10.80;;;4.00;99.90;;;;;;7284466;32;20185;-60
2022/03/19 05:36:29;;;;;;;17.85;10.57;;;4.10;99.90;;;;;;7284103;32;20238;-60
2022/03/19 05:40:31;;;;;;;17.40;10.35;;;4.20;99.90;;;;;;7288581;32;20177;-59
2022/03/19 05:44:33;;;;;;;17.50;10.93;;;4.30;99.90;;;;;;7286957;32;20600;-59
2022/03/19 05:48:34;;;;;;;17.58;10.05;;;4.20;99.90;;;;;;7286355;32;20243;-59
2022/03/19 05:52:37;;;;;;;16.08;9.77;;;4.30;99.90;;;;;;7286731;32;20589;-60
2022/03/19 05:56:38;;;;;;;16.55;10.10;;;4.20;99.90;;;;;;7288722;32;20253;-59
2022/03/19 06:00:40;;;;;;;17.35;8.65;;;4.20;99.90;;;;;;7288604;32;20209;-59
2022/03/19 06:04:42;;;;;;;20.58;10.77;;;4.30;99.90;;;;;;7287881;32;20203;-59
2022/03/19 06:08:44;;;;;;;17.23;11.18;;;4.20;99.90;;;;;;7285823;32;20360;-59
2022/03/19 06:12:46;;;;;;;16.85;10.70;;;4.20;99.90;;;;;;7287113;32;20709;-59
2022/03/19 06:16:49;;;;;;;16.30;10.43;;;4.30;99.90;;;;;;7288117;32;20124;-59
2022/03/19 06:20:51;;;;;;;16.00;10.30;;;4.40;99.90;;;;;;7281600;32;20945;-60
2022/03/19 06:24:53;;;;;;;17.02;9.93;;;4.40;99.90;;;;;;7285588;32;20131;-59
2022/03/19 06:28:54;;;;;;;16.52;10.10;;;4.40;99.90;;;;;;7282101;32;20202;-61
2022/03/19 06:32:58;;;;;;;17.98;9.45;;;4.40;99.90;;;;;;7285463;32;20791;-62
2022/03/19 06:41:23;;;;;;;18.20;9.93;;;4.60;99.90;;;;;;7282010;32;20111;-59
2022/03/19 06:45:26;;;;;;;14.27;9.68;;;4.60;99.90;;;;;;7283446;32;20318;-62
2022/03/19 06:49:29;;;;;;;14.85;9.43;;;4.80;99.90;;;;;;7285424;32;20116;-61
2022/03/19 06:53:31;;;;;;;12.32;8.55;;;4.90;99.90;;;;;;7283634;32;20116;-60
2022/03/19 06:57:32;;;;;;;15.13;9.30;;;4.90;99.90;;;;;;7288174;32;20215;-61
2022/03/19 07:01:36;;;;;;;18.35;9.93;;;5.00;99.90;;;;;;7285437;32;20595;-61
2022/03/19 07:05:38;;;;;;;15.43;9.00;;;5.00;99.90;;;;;;7283041;32;21315;-61
2022/03/19 07:09:40;;;;;;;19.15;9.00;;;5.10;99.90;;;;;;7272397;32;20108;-61
2022/03/19 07:13:42;;;;;;;18.25;9.73;;;5.30;99.90;;;;;;7286300;32;20111;-59
2022/03/19 07:17:44;;;;;;;19.58;8.50;;;5.40;99.90;;;;;;7286023;32;20257;-60
2022/03/19 07:21:45;;;;;;;14.90;8.90;;;5.50;99.90;;;;;;7287813;32;20115;-59
2022/03/19 07:25:47;;;;;;;12.45;8.43;;;5.70;99.90;;;;;;7290688;32;20487;-60
2022/03/19 07:29:49;;;;;;;17.87;8.70;;;5.80;99.90;;;;;;7275973;32;20226;-61
2022/03/19 07:33:50;;;;;;;16.20;8.77;;;5.80;99.90;;;;;;7288717;32;20100;-61
2022/03/19 07:37:53;;;;;;;16.00;8.48;;;5.90;99.90;;;;;;7288975;32;20135;-60
2022/03/19 07:41:56;;;;;;;15.45;8.77;;;6.00;99.90;;;;;;7285204;32;20609;-60
2022/03/19 07:45:57;;;;;;;16.62;7.80;;;6.10;99.90;;;;;;7285038;32;20595;-61
2022/03/19 07:49:59;;;;;;;16.25;8.18;;;6.30;99.90;;;;;;7287339;32;20130;-61
2022/03/19 07:54:01;;;;;;;13.30;7.57;;;6.40;99.90;;;;;;7289415;32;20437;-60
2022/03/19 07:58:04;;;;;;;15.98;7.80;;;6.50;99.90;;;;;;7289886;32;20575;-60
2022/03/19 08:02:06;;;;;;;15.65;7.78;;;6.60;99.90;;;;;;7291463;32;20134;-61
2022/03/19 08:06:07;;;;;;;15.18;7.82;;;6.70;99.90;;;;;;7290615;32;20205;-60
2022/03/19 08:10:10;;;;;;;16.33;7.65;;;6.80;99.90;;;;;;7286256;32;20116;-60
2022/03/19 08:14:14;;;;;;;14.93;7.18;;;7.00;99.90;;;;;;7291956;32;20115;-60
2022/03/19 08:18:16;;;;;;;12.57;6.97;;;7.10;99.90;;;;;;7295341;32;20104;-60
2022/03/19 08:22:18;;;;;;;16.95;7.65;;;7.30;99.90;;;;;;7296434;32;20257;-60
2022/03/19 08:26:20;;;;;;;12.88;5.90;;;7.50;99.90;;;;;;7298416;32;20242;-60
2022/03/19 08:30:21;;;;;;;12.95;5.95;;;7.70;99.90;;;;;;7291695;32;20525;-56
2022/03/19 08:34:23;;;;;;;13.95;5.90;;;8.20;99.90;;;;;;7294524;32;20627;-60
2022/03/19 08:42:51;;;;;;;14.00;5.40;;;9.70;99.90;;;;;;7291590;32;20854;-61
2022/03/19 08:46:52;;;;;;;11.50;5.47;;;10.10;99.90;;;;;;7295011;32;20107;-61
2022/03/19 08:51:39;;;;;;;9.15;4.70;;;10.40;99.90;;;;;;7293228;32;20605;-60
2022/03/19 08:55:22;;;;;;;14.13;5.00;;;10.60;99.90;;;;;;7292948;32;20136;-60
2022/03/19 08:59:24;;;;;;;9.98;4.62;;;10.90;99.90;;;;;;7297525;32;20216;-60
2022/03/19 09:03:26;;;;;;;9.02;4.75;;;10.90;99.90;;;;;;7289073;32;20115;-60
2022/03/19 09:07:28;;;;;;;12.23;4.97;;;11.20;99.90;;;;;;7291284;32;20112;-61
2022/03/19 09:11:31;;;;;;;12.00;4.10;;;11.60;99.90;;;;;;7292464;32;20209;-63
2022/03/19 09:15:33;;;;;;;7.35;3.78;;;11.80;99.90;;;;;;7294634;32;20784;-61
2022/03/19 09:19:37;;;;;;;8.65;3.60;;;11.70;99.90;;;;;;7288957;32;21710;-62
2022/03/19 09:23:47;;;;;;;10.88;3.15;;;11.70;99.90;;;;;;7288339;32;20233;-61
2022/03/19 09:27:49;;;;;;;12.63;3.40;;;11.70;99.90;;;;;;7292851;32;20222;-63
2022/03/19 09:31:51;;;;;;;8.93;3.50;;;12.20;99.90;;;;;;7288673;32;20524;-63
2022/03/19 09:35:53;;;;;;;11.88;2.62;;;12.70;99.90;;;;;;7288558;32;20103;-63
2022/03/19 09:39:54;;;;;;;7.37;2.55;;;13.30;99.90;;;;;;7288667;32;20344;-61
2022/03/19 09:43:58;;;;;;;7.10;3.08;;;13.50;98.80;;;;;;7296080;32;20202;-59
2022/03/19 09:48:01;;;;;;;6.28;2.53;;;13.40;96.20;;;;;;7292820;32;20107;-59
2022/03/19 09:52:03;;;;;;;8.68;3.15;;;13.50;91.60;;;;;;7296652;32;20134;-62
2022/03/19 09:56:13;;;;;;;5.37;2.12;;;13.70;90.50;;;;;;7296839;32;20116;-62
2022/03/19 10:00:14;;;;;;;8.32;2.80;;;14.00;88.80;;;;;;7297346;32;20456;-62
2022/03/19 10:04:19;;;;;;;6.28;2.85;;;14.40;81.50;;;;;;7291838;32;20324;-63
2022/03/19 10:08:37;;;;;;;10.55;2.90;;;14.70;77.70;;;;;;7285350;32;20496;-63
2022/03/19 10:12:44;;;;;;;6.50;2.45;;;15.00;79.60;;;;;;7292210;32;20116;-61
2022/03/19 10:16:47;;;;;;;;;;;14.40;71.50;;;;;;7293442;32;20349;-63
2022/03/19 10:20:49;;;;;;;4.50;2.50;;;14.00;64.50;;;;;;7295789;32;20429;-64
2022/03/19 10:24:58;;;;;;;8.43;2.60;;;14.20;73.20;;;;;;7295808;32;20111;-63
2022/03/19 10:29:04;;;;;;;6.55;2.95;;;14.60;66.10;;;;;;7296387;32;20606;-61
2022/03/19 10:33:10;;;;;;;9.95;3.75;;;15.60;68.50;;;;;;7287270;32;20203;-63
2022/03/19 10:37:35;;;;;;;6.50;3.17;;;15.50;66.50;;;;;;7293116;32;20112;-63
2022/03/19 10:41:37;;;;;;;6.87;3.08;;;16.00;65.30;;;;;;7293781;32;20297;-64
2022/03/19 10:45:50;;;;;;;7.87;3.62;;;16.50;67.00;;;;;;7294902;32;20144;-62
2022/03/19 10:49:59;;;;;;;8.15;3.03;;;16.60;61.00;;;;;;7294851;32;20111;-63
2022/03/19 10:54:02;;;;;;;6.82;3.25;;;16.50;61.80;;;;;;7288794;32;20111;-60
2022/03/19 10:58:04;;;;;;;5.97;2.72;;;16.40;61.10;;;;;;7290523;32;20154;-61
2022/03/19 11:02:15;;;;;;;7.05;3.05;;;15.50;64.10;;;;;;7291324;32;20104;-62
2022/03/19 11:06:20;;;;;;;6.97;2.78;;;15.20;63.80;;;;;;7279799;32;20507;-63
2022/03/19 11:10:22;;;;;;;6.25;2.25;;;14.70;63.10;;;;;;7283992;32;20218;-63
2022/03/19 11:14:30;;;;;;;5.07;2.72;;;15.40;61.40;;;;;;7287334;32;20733;-63
2022/03/19 11:18:38;;;;;;;8.20;2.30;;;14.60;61.20;;;;;;7289752;32;20230;-63
2022/03/19 11:22:50;;;;;;;5.78;2.42;;;14.20;62.00;;;;;;7286477;32;20487;-62
2022/03/19 11:26:53;;;;;;;8.65;2.85;;;14.20;61.40;;;;;;7284517;32;20492;-63
2022/03/19 11:31:01;;;;;;;4.85;2.10;;;14.30;62.40;;;;;;7290484;32;20568;-64
2022/03/19 11:35:05;;;;;;;4.75;2.15;;;14.30;58.80;;;;;;7282111;32;20374;-64
2022/03/19 11:39:07;;;;;;;6.70;2.08;;;14.60;59.60;;;;;;7289607;32;20202;-63
2022/03/19 11:43:09;;;;;;;6.22;1.67;;;14.90;59.50;;;;;;7287117;32;20136;-62
2022/03/19 11:47:17;;;;;;;4.28;1.50;;;14.80;57.40;;;;;;7283769;32;20104;-61
2022/03/19 11:51:25;;;;;;;4.22;1.60;;;15.00;52.50;;;;;;7290482;32;20448;-61
2022/03/19 11:55:29;;;;;;;3.15;1.30;;;13.80;53.50;;;;;;7292281;32;20340;-61
2022/03/19 11:59:43;;;;;;;5.12;1.42;;;14.30;54.50;;;;;;7292834;32;20112;-62
2022/03/19 12:04:04;;;;;;;5.97;0.90;;;15.00;52.20;;;;;;7295026;32;20112;-63
2022/03/19 12:08:10;;;;;;;2.15;0.80;;;15.10;49.30;;;;;;7292701;32;20140;-61
2022/03/19 12:12:18;;;;;;;1.77;0.80;;;15.20;49.10;;;;;;7297791;32;20134;-62
2022/03/19 12:16:39;;;;;;;2.78;1.00;;;14.30;46.90;;;;;;7297494;32;20742;-61
2022/03/19 12:20:42;;;;;;;2.20;0.77;;;14.00;47.70;;;;;;7295096;32;20179;-61
2022/03/19 12:24:48;;;;;;;4.07;0.90;;;14.20;48.40;;;;;;7293415;32;20606;-61
2022/03/19 12:28:58;;;;;;;2.92;0.98;;;14.00;47.80;;;;;;7292628;32;20108;-62
2022/03/19 12:33:00;;;;;;;4.80;0.95;;;13.70;50.20;;;;;;7295310;32;20233;-61
2022/03/19 12:37:04;;;;;;;4.62;1.00;;;13.50;49.80;;;;;;7293231;32;20732;-62
2022/03/19 12:41:24;;;;;;;5.22;0.98;;;13.20;51.10;;;;;;7290674;32;20290;-61
2022/03/19 12:45:55;;;;;;;4.80;1.23;;;13.00;51.50;;;;;;7293049;32;20187;-63
2022/03/19 12:49:56;;;;;;;2.37;0.73;;;12.90;51.90;;;;;;7278195;32;20242;-62
2022/03/19 12:54:17;;;;;;;3.80;0.90;;;13.00;53.40;;;;;;7288119;32;20116;-56
2022/03/19 12:58:19;;;;;;;3.65;1.10;;;13.30;53.00;;;;;;7282401;32;20134;-61
2022/03/19 13:02:23;;;;;;;4.45;1.12;;;13.20;52.70;;;;;;7296939;32;20108;-62
2022/03/19 13:06:36;;;;;;;2.53;0.90;;;13.00;52.00;;;;;;7297482;32;20807;-61
2022/03/19 13:10:55;;;;;;;2.45;0.90;;;13.00;51.10;;;;;;7296384;32;20131;-60
2022/03/19 13:14:57;;;;;;;1.73;0.80;;;13.10;49.60;;;;;;7296752;32;20131;-61
2022/03/19 13:19:01;;;;;;;2.00;0.80;;;13.00;47.80;;;;;;7294692;32;20155;-61
2022/03/19 13:23:04;;;;;;;3.42;0.90;;;12.80;47.90;;;;;;7292956;32;20111;-62
2022/03/19 13:27:06;;;;;;;3.35;1.00;;;13.20;49.80;;;;;;7296644;32;20108;-64
2022/03/19 13:31:08;;;;;;;4.20;1.10;;;13.40;48.50;;;;;;7285247;32;20222;-64
2022/03/19 13:35:10;;;;;;;3.00;1.20;;;13.80;49.20;;;;;;7289688;32;20134;-61
2022/03/19 13:39:33;;;;;;;6.57;1.45;;;13.80;48.40;;;;;;7294219;32;20138;-61
2022/03/19 13:43:40;;;;;;;3.78;1.33;;;13.90;50.10;;;;;;7286634;32;21250;-61
2022/03/19 13:47:52;;;;;;;2.83;1.27;;;13.70;50.20;;;;;;7281611;32;20286;-63
2022/03/19 13:51:53;;;;;;;3.67;1.08;;;14.00;50.20;;;;;;7286340;32;20235;-61
2022/03/19 13:55:59;;;;;;;3.92;1.27;;;14.00;49.50;;;;;;7292540;32;20191;-60
2022/03/19 14:00:08;;;;;;;3.85;0.90;;;14.00;48.30;;;;;;7291294;32;20844;-59
2022/03/19 14:04:17;;;;;;;2.70;0.80;;;14.20;47.70;;;;;;7283225;32;20149;-60
2022/03/19 14:08:22;;;;;;;4.05;1.12;;;14.50;48.20;;;;;;7283161;32;20206;-62
2022/03/19 14:12:38;;;;;;;3.37;0.90;;;14.60;47.60;;;;;;7280028;32;20187;-58
2022/03/19 14:16:53;;;;;;;3.03;0.90;;;14.40;45.20;;;;;;7284453;32;20116;-62
2022/03/19 14:20:59;;;;;;;3.05;0.88;;;14.20;45.20;;;;;;7286817;32;20788;-61
2022/03/19 14:25:01;;;;;;;1.45;0.65;;;13.80;47.00;;;;;;7287341;32;20380;-61
2022/03/19 14:29:02;;;;;;;2.85;1.08;;;14.00;42.80;;;;;;7291344;32;20187;-62
2022/03/19 14:33:05;;;;;;;4.47;1.00;;;14.00;44.90;;;;;;7286398;32;20697;-62
2022/03/19 14:37:07;;;;;;;3.60;1.00;;;14.20;44.20;;;;;;7285379;32;20783;-63
2022/03/19 14:41:15;;;;;;;2.97;0.90;;;14.40;44.70;;;;;;7287627;32;20217;-60
2022/03/19 14:45:16;;;;;;;6.15;1.45;;;14.00;46.30;;;;;;7282198;32;20200;-61
2022/03/19 14:49:18;;;;;;;2.33;1.02;;;13.50;47.10;;;;;;7282665;32;20190;-60
2022/03/19 14:53:20;;;;;;;4.90;1.33;;;13.10;46.50;;;;;;7280671;32;20500;-60
2022/03/19 14:57:22;;;;;;;2.85;1.15;;;12.50;45.60;;;;;;7282230;32;20265;-60
2022/03/19 15:01:23;;;;;;;3.85;1.65;;;12.30;47.00;;;;;;7285173;32;20482;-60
2022/03/19 15:05:25;;;;;;;5.22;1.77;;;11.90;48.50;;;;;;7280807;32;20157;-61
2022/03/19 15:09:27;;;;;;;4.50;1.83;;;11.80;50.90;;;;;;7287880;32;20864;-62
2022/03/19 15:13:31;;;;;;;3.92;1.55;;;11.80;52.10;;;;;;7287147;32;20239;-66
2022/03/19 15:17:33;;;;;;;4.22;1.55;;;11.60;52.10;;;;;;7285158;32;20528;-61
2022/03/19 15:21:35;;;;;;;5.87;1.80;;;11.50;52.70;;;;;;7285596;32;20107;-61
2022/03/19 15:25:37;;;;;;;5.18;1.83;;;11.40;53.40;;;;;;7288193;32;20134;-62
2022/03/19 15:29:38;;;;;;;5.25;2.12;;;11.20;54.30;;;;;;7285934;32;20163;-59
2022/03/19 15:33:40;;;;;;;6.65;1.40;;;11.20;56.40;;;;;;7285583;32;20194;-60
2022/03/19 15:37:43;;;;;;;2.62;1.15;;;11.20;56.70;;;;;;7287013;32;20195;-59
2022/03/19 15:41:45;;;;;;;3.50;1.20;;;11.20;56.20;;;;;;7292959;32;20202;-61
2022/03/19 15:45:46;;;;;;;3.92;1.25;;;11.20;55.40;;;;;;7283240;32;20191;-61
2022/03/19 15:49:48;;;;;;;3.72;1.10;;;11.00;56.20;;;;;;7283082;32;20210;-61
2022/03/19 15:53:52;;;;;;;4.37;1.20;;;10.90;56.40;;;;;;7267694;32;20225;-62
2022/03/19 15:57:54;;;;;;;2.33;0.80;;;11.00;57.60;;;;;;7281993;32;20226;-60
2022/03/19 16:01:55;;;;;;;4.28;1.00;;;10.90;56.30;;;;;;7281136;32;20104;-61
2022/03/19 16:05:58;;;;;;;6.05;0.88;;;10.90;55.80;;;;;;7287179;32;20270;-60
2022/03/19 16:10:00;;;;;;;4.45;0.88;;;10.80;56.00;;;;;;7280694;32;20486;-60
2022/03/19 16:14:02;;;;;;;2.97;1.12;;;10.90;56.40;;;;;;7284067;32;20819;-61
2022/03/19 16:18:04;;;;;;;4.87;0.88;;;10.80;56.40;;;;;;7280443;32;20557;-59
2022/03/19 16:22:06;;;;;;;4.60;1.27;;;10.60;57.20;;;;;;7283285;32;20116;-61
2022/03/19 16:26:07;;;;;;;3.50;0.95;;;10.50;57.00;;;;;;7283132;32;20886;-60
2022/03/19 16:30:10;;;;;;;3.28;0.80;;;10.40;56.80;;;;;;7281390;32;20107;-61
2022/03/19 16:34:11;;;;;;;4.18;1.00;;;10.40;57.00;;;;;;7283676;32;20187;-60
2022/03/19 16:38:16;;;;;;;2.62;0.73;;;10.40;57.00;;;;;;7283152;32;20115;-62
2022/03/19 16:42:18;;;;;;;3.35;0.80;;;10.20;57.60;;;;;;7290576;32;20241;-60
2022/03/19 16:46:20;;;;;;;3.62;0.80;;;10.10;59.20;;;;;;7286887;32;20202;-60
2022/03/19 16:50:22;;;;;;;5.05;0.80;;;10.00;59.50;;;;;;7287246;32;20173;-61
2022/03/19 16:54:24;;;;;;;4.00;0.60;;;9.90;60.50;;;;;;7292271;32;20140;-60
2022/03/19 16:58:25;;;;;;;2.72;0.80;;;9.80;59.40;;;;;;7291898;32;20203;-61
2022/03/19 17:02:27;;;;;;;2.08;0.60;;;9.70;61.00;;;;;;7290482;32;20112;-60
2022/03/19 17:06:29;;;;;;;2.50;0.77;;;9.60;61.60;;;;;;7286615;32;20119;-61
2022/03/19 17:10:31;;;;;;;4.37;1.10;;;9.50;62.20;;;;;;7293599;32;20535;-61
2022/03/19 17:14:32;;;;;;;2.42;0.90;;;9.50;63.20;;;;;;7288806;32;20116;-60
2022/03/19 17:18:34;;;;;;;3.87;0.93;;;9.40;64.20;;;;;;7289382;32;20756;-61
2022/03/19 17:22:37;;;;;;;4.05;0.90;;;9.30;65.40;;;;;;7290775;32;20135;-62
2022/03/19 17:26:39;;;;;;;8.43;1.67;;;9.30;66.50;;;;;;7285635;32;20130;-61
2022/03/19 17:30:41;;;;;;;3.05;0.88;;;9.20;67.80;;;;;;7291786;32;20229;-62
2022/03/19 17:34:42;;;;;;;3.55;0.90;;;9.10;68.20;;;;;;7293802;32;20131;-61
2022/03/19 17:38:45;;;;;;;3.05;0.93;;;9.00;68.90;;;;;;7294242;32;20134;-60
2022/03/19 17:42:47;;;;;;;3.62;1.23;;;8.90;71.20;;;;;;7289796;32;20112;-61
2022/03/19 17:46:48;;;;;;;3.50;1.17;;;8.70;73.30;;;;;;7280664;32;20103;-61
2022/03/19 17:50:50;;;;;;;4.40;1.10;;;8.60;75.10;;;;;;7293295;32;20128;-61
2022/03/19 17:54:52;;;;;;;3.15;1.12;;;8.60;76.30;;;;;;7294324;32;20273;-62
2022/03/19 17:58:53;;;;;;;3.30;1.10;;;8.50;77.70;;;;;;7290095;32;20108;-61
2022/03/19 18:02:57;;;;;;;4.20;1.20;;;8.50;78.70;;;;;;7287326;32;20306;-60
2022/03/19 18:07:00;;;;;;;3.08;1.20;;;8.30;80.40;;;;;;7293385;32;20233;-60
2022/03/19 18:11:02;;;;;;;8.88;1.35;;;8.30;82.70;;;;;;7293882;32;20112;-62
2022/03/19 18:15:06;;;;;;;4.12;1.52;;;8.20;84.50;;;;;;7285375;32;20112;-62
2022/03/19 18:19:09;;;;;;;8.00;1.60;;;8.10;86.60;;;;;;7287173;32;20301;-62
2022/03/19 18:23:11;;;;;;;4.07;1.30;;;8.10;89.30;;;;;;7285228;32;20128;-62
2022/03/19 18:27:13;;;;;;;2.78;1.30;;;8.00;90.30;;;;;;7289290;32;20457;-62
2022/03/19 18:31:17;;;;;;;7.32;1.83;;;7.90;91.70;;;;;;7290048;32;20946;-62
2022/03/19 18:35:19;;;;;;;3.28;1.50;;;7.90;92.70;;;;;;7287683;32;20133;-61
2022/03/19 18:39:23;;;;;;;5.47;1.30;;;7.80;94.20;;;;;;7293401;32;20245;-61
2022/03/19 18:43:24;;;;;;;7.10;1.85;;;7.80;95.70;;;;;;7283066;32;20116;-61
2022/03/19 18:47:26;;;;;;;5.55;1.50;;;7.70;96.80;;;;;;7287361;32;20224;-65
2022/03/19 18:51:28;;;;;;;4.82;1.10;;;7.60;98.10;;;;;;7288343;32;20194;-61
2022/03/19 18:55:29;;;;;;;5.60;1.60;;;7.70;99.10;;;;;;7289115;32;20113;-60
2022/03/19 18:59:36;;;;;;;6.15;1.52;;;7.60;99.90;;;;;;7288025;32;20768;-60
2022/03/19 19:03:38;;;;;;;3.85;1.37;;;7.70;99.90;;;;;;7286484;32;20230;-60
2022/03/19 19:07:39;;;;;;;5.43;1.67;;;7.60;99.90;;;;;;7285058;32;20220;-61
2022/03/19 19:11:42;;;;;;;5.22;1.15;;;7.60;99.90;;;;;;7287642;32;20289;-61
2022/03/19 19:15:44;;;;;;;7.43;1.40;;;7.60;99.90;;;;;;7281905;32;20107;-60
2022/03/19 19:19:46;;;;;;;4.35;1.37;;;7.70;99.90;;;;;;7283321;32;20269;-61
2022/03/19 19:23:47;;;;;;;8.38;1.92;;;7.70;99.90;;;;;;7283387;32;20176;-60
2022/03/19 19:27:49;;;;;;;3.75;1.20;;;7.80;99.90;;;;;;7287012;32;20355;-63
2022/03/19 19:31:50;;;;;;;3.60;1.00;;;7.70;99.90;;;;;;7292294;32;20123;-62
2022/03/19 19:35:52;;;;;;;6.80;1.12;;;7.60;99.90;;;;;;7291295;32;20135;-62
2022/03/19 19:39:54;;;;;;;6.18;2.60;;;7.50;99.90;;;;;;7290682;32;20171;-60
2022/03/19 19:43:56;;;;;;;5.15;1.30;;;7.50;99.90;;;;;;7293718;32;20115;-61
2022/03/19 19:48:00;;;;;;;6.40;1.60;;;7.40;99.90;;;;;;7287848;32;20210;-61
2022/03/19 19:52:03;;;;;;;5.12;1.77;;;7.40;99.90;;;;;;7289805;32;20203;-63
2022/03/19 19:56:04;;;;;;;6.65;1.25;;;7.20;99.90;;;;;;7286159;32;20149;-63
2022/03/19 20:00:10;;;;;;;10.57;2.10;;;7.20;99.90;;;;;;7289453;32;20227;-64
2022/03/19 20:04:12;;;;;;;4.07;1.30;;;7.20;99.90;;;;;;7290558;32;20127;-65
2022/03/19 20:08:14;;;;;;;4.75;1.33;;;7.00;99.90;;;;;;7294785;32;20112;-64
2022/03/19 20:12:15;;;;;;;4.60;1.60;;;6.90;99.90;;;;;;7288697;32;20202;-63
2022/03/19 20:16:17;;;;;;;5.57;1.42;;;6.90;99.90;;;;;;7288773;32;20203;-58
2022/03/19 20:20:22;;;;;;;8.07;1.50;;;6.80;99.90;;;;;;7293924;32;20210;-60
2022/03/19 20:24:45;;;;;;;5.40;2.05;;;6.90;99.90;;;;;;7289662;32;20142;-59
2022/03/19 20:28:47;;;;;;;4.72;1.58;;;7.00;99.90;;;;;;7278610;32;20115;-64
2022/03/19 20:32:49;;;;;;;5.20;1.33;;;7.00;99.90;;;;;;7289810;32;20236;-62
2022/03/19 20:36:51;;;;;;;5.20;1.27;;;7.10;99.90;;;;;;7290179;32;20130;-63
2022/03/19 20:41:02;;;;;;;6.70;1.85;;;7.10;99.90;;;;;;7291964;32;20520;-63
2022/03/19 20:45:06;;;;;;;7.75;2.62;;;7.10;99.90;;;;;;7268297;32;20830;-62
2022/03/19 20:50:14;;;;;;;7.53;2.05;;;7.10;99.90;;;;;;7291455;32;20104;-62
2022/03/19 20:53:29;;;;;;;9.70;3.80;;;7.10;99.90;;;;;;7294641;32;20523;-62
2022/03/19 20:57:32;;;;;;;14.57;5.15;;;7.00;99.90;;;;;;7297048;32;20100;-62
2022/03/19 21:01:34;;;;;;;9.75;3.90;;;7.00;99.90;;;;;;7297617;32;20436;-61
2022/03/19 21:05:39;;;;;;;8.25;3.50;;;7.10;99.90;;;;;;7295264;32;20120;-62
2022/03/19 21:09:40;;;;;;;8.50;3.42;;;7.10;99.90;;;;;;7293900;32;20187;-61
2022/03/19 21:13:43;;;;;;;6.57;2.10;;;7.10;99.90;;;;;;7290996;32;20123;-59
2022/03/19 21:17:46;;;;;;;4.30;1.42;;;7.10;99.90;;;;;;7283858;32;20209;-61